Time;durP1;ratioP1;P1;durP2;ratioP2;P2;SDS_P1;SDS_P2;PMS_P1;PMS_P2;Temp;Humidity;BMP_temperature;BMP_pressure;BME280_temperature;BME280_humidity;BME280_pressure;Samples;Min_cycle;Max_cycle;Signal;HPM_P1;HPM_P2
2022/05/13 00:00:17;;;;;;;9.73;1.80;;;;;;;14.70;55.02;101663.84;5060324;28;20049;-65
2022/05/13 00:02:45;;;;;;;8.15;1.45;;;;;;;14.56;54.94;101668.66;5067107;28;20048;-65
2022/05/13 00:05:12;;;;;;;8.52;1.67;;;;;;;14.73;54.71;101663.22;5058901;28;20053;-65
2022/05/13 00:07:40;;;;;;;10.00;1.70;;;;;;;14.20;55.41;101657.63;5063957;28;20059;-66
2022/05/13 00:10:07;;;;;;;7.20;1.70;;;;;;;14.33;55.11;101656.75;5072796;28;20510;-66
2022/05/13 00:12:40;;;;;;;9.43;1.88;;;;;;;14.15;53.89;101671.63;5059335;28;20056;-66
2022/05/13 00:15:12;;;;;;;7.80;1.33;;;;;;;14.05;54.00;101662.72;5071746;28;20487;-65
2022/05/13 00:17:40;;;;;;;13.65;1.88;;;;;;;14.16;53.76;101662.16;5068831;28;20054;-65
2022/05/13 00:20:09;;;;;;;7.50;1.63;;;;;;;14.22;54.30;101672.00;5071432;28;20411;-61
2022/05/13 00:22:45;;;;;;;6.90;1.30;;;;;;;14.17;54.69;101669.34;5054472;28;20048;-60
2022/05/13 00:25:15;;;;;;;6.55;1.17;;;;;;;14.01;54.73;101670.03;5054178;28;20048;-61
2022/05/13 00:27:42;;;;;;;10.95;1.70;;;;;;;14.16;54.50;101664.09;5048648;28;20056;-61
2022/05/13 00:30:10;;;;;;;8.70;1.25;;;;;;;13.67;55.60;101659.44;5059723;28;20048;-61
2022/05/13 00:32:40;;;;;;;10.85;1.80;;;;;;;13.73;55.86;101665.69;5060462;28;20496;-61
2022/05/13 00:35:07;;;;;;;8.18;1.92;;;;;;;13.55;56.73;101668.28;5059185;28;20057;-61
2022/05/13 00:37:35;;;;;;;13.18;2.00;;;;;;;13.86;56.36;101662.06;5060307;28;20052;-60
2022/05/13 00:40:04;;;;;;;8.52;1.48;;;;;;;13.60;55.97;101661.00;5053258;28;20045;-61
2022/05/13 00:42:32;;;;;;;11.23;2.03;;;;;;;13.86;55.99;101662.06;5054356;28;20060;-60
2022/05/13 00:44:59;;;;;;;8.93;1.73;;;;;;;13.91;55.95;101660.00;5064775;28;20068;-61
2022/05/13 00:47:27;;;;;;;9.52;1.88;;;;;;;13.79;55.41;101661.69;5054083;28;20057;-62
2022/05/13 00:49:55;;;;;;;8.07;1.42;;;;;;;13.47;55.82;101657.97;5052290;28;20176;-61
2022/05/13 00:52:23;;;;;;;5.53;1.40;;;;;;;13.42;55.87;101655.28;5053070;28;20060;-61
2022/05/13 00:54:51;;;;;;;9.25;1.60;;;;;;;13.40;55.49;101660.31;5067321;28;20094;-62
2022/05/13 00:57:18;;;;;;;9.40;1.52;;;;;;;13.39;55.62;101660.59;5066522;28;20483;-59
2022/05/13 00:59:47;;;;;;;9.13;1.58;;;;;;;13.54;54.64;101663.06;5033244;28;20045;-60
2022/05/13 01:02:15;;;;;;;7.22;1.80;;;;;;;13.47;54.94;101669.03;5036704;28;20046;-60
2022/05/13 01:04:43;;;;;;;7.43;1.60;;;;;;;13.58;55.26;101662.13;5057479;28;20060;-62
2022/05/13 01:07:16;;;;;;;9.75;1.58;;;;;;;13.70;54.84;101669.09;5019567;28;20061;-60
2022/05/13 01:09:56;;;;;;;9.82;1.38;;;;;;;13.76;55.17;101667.81;5053201;28;20057;-61
2022/05/13 01:12:29;;;;;;;8.45;1.40;;;;;;;13.59;55.45;101665.72;5048252;28;20049;-61
2022/05/13 01:15:00;;;;;;;7.57;1.65;;;;;;;13.87;55.26;101666.47;5052649;28;20476;-60
2022/05/13 01:20:46;;;;;;;7.85;1.45;;;;;;;13.66;54.91;101660.59;5052864;28;20053;-63
2022/05/13 01:23:35;;;;;;;8.25;1.60;;;;;;;13.90;54.86;101663.06;5057604;28;20506;-61
2022/05/13 01:26:12;;;;;;;10.82;1.52;;;;;;;14.15;54.88;101668.00;5073472;28;20049;-61
2022/05/13 01:28:43;;;;;;;6.70;1.40;;;;;;;14.08;54.91;101662.91;5055000;28;20052;-59
2022/05/13 01:31:14;;;;;;;8.43;1.88;;;;;;;13.52;57.00;101662.56;5045744;28;20416;-60
2022/05/13 01:33:41;;;;;;;7.40;1.65;;;;;;;13.58;57.36;101669.63;5052032;28;20068;-61
2022/05/13 01:36:12;;;;;;;11.55;1.95;;;;;;;13.93;56.43;101673.53;5051246;28;20067;-60
2022/05/13 01:38:41;;;;;;;9.48;1.80;;;;;;;13.92;56.37;101674.66;5063522;28;20052;-59
2022/05/13 01:41:10;;;;;;;7.55;1.88;;;;;;;13.76;56.95;101684.44;5060259;28;20520;-60
2022/05/13 01:43:39;;;;;;;9.80;1.85;;;;;;;13.60;57.48;101683.97;5041725;28;20060;-59
2022/05/13 01:46:07;;;;;;;10.25;1.55;;;;;;;13.32;57.79;101687.88;5058527;28;20064;-62
2022/05/13 01:48:35;;;;;;;7.22;1.52;;;;;;;13.19;57.97;101675.72;5051692;28;20512;-60
2022/05/13 01:51:03;;;;;;;9.93;1.90;;;;;;;13.15;58.37;101668.31;5043742;28;20045;-61
2022/05/13 01:53:31;;;;;;;8.57;1.70;;;;;;;13.20;58.25;101674.56;5057304;28;20056;-60
2022/05/13 01:55:58;;;;;;;7.68;1.40;;;;;;;13.14;58.41;101666.69;5065216;28;20053;-60
2022/05/13 01:58:33;;;;;;;8.00;1.73;;;;;;;13.42;57.82;101677.41;5056927;28;20057;-59
2022/05/13 02:01:02;;;;;;;11.52;1.48;;;;;;;13.78;56.58;101673.88;5067352;28;20056;-60
2022/05/13 02:03:45;;;;;;;11.10;1.90;;;;;;;13.34;57.32;101663.50;5054076;28;20472;-60
2022/05/13 02:06:25;;;;;;;6.72;1.35;;;;;;;13.23;57.49;101665.66;5056648;28;20311;-60
2022/05/13 02:08:54;;;;;;;11.38;1.58;;;;;;;13.58;56.87;101658.56;5066452;28;20072;-60
2022/05/13 02:11:24;;;;;;;5.53;1.40;;;;;;;13.20;57.38;101666.28;5065455;28;20353;-59
2022/05/13 02:13:52;;;;;;;9.02;2.13;;;;;;;12.93;58.43;101668.19;5056386;28;20084;-60
2022/05/13 02:16:20;;;;;;;8.63;1.75;;;;;;;13.23;57.54;101668.41;5074578;28;20059;-61
2022/05/13 02:18:48;;;;;;;11.95;1.85;;;;;;;13.16;57.50;101664.44;5072725;28;20071;-61
2022/05/13 02:21:16;;;;;;;10.60;2.08;;;;;;;13.17;57.84;101672.44;5057863;28;20048;-61
2022/05/13 02:23:43;;;;;;;7.70;1.10;;;;;;;13.11;57.28;101676.41;5055535;28;20061;-60
2022/05/13 02:26:12;;;;;;;8.75;1.98;;;;;;;13.19;57.81;101669.34;5059918;28;20051;-60
2022/05/13 02:28:40;;;;;;;7.22;1.67;;;;;;;13.49;57.00;101674.25;5060517;28;20049;-61
2022/05/13 02:31:08;;;;;;;7.68;1.50;;;;;;;13.65;56.72;101667.22;5056094;28;20415;-60
2022/05/13 02:33:36;;;;;;;11.65;2.47;;;;;;;13.62;56.27;101669.81;5059309;28;20072;-59
2022/05/13 02:36:04;;;;;;;7.95;1.58;;;;;;;13.66;56.73;101670.81;5054901;28;20052;-60
2022/05/13 02:38:32;;;;;;;10.40;1.90;;;;;;;13.54;56.47;101680.50;5059560;28;20052;-60
2022/05/13 02:41:11;;;;;;;6.25;1.70;;;;;;;13.07;58.28;101672.63;5075953;28;20056;-59
2022/05/13 02:43:45;;;;;;;12.20;2.30;;;;;;;12.91;59.28;101664.91;5076022;28;20044;-60
2022/05/13 02:46:18;;;;;;;6.22;1.48;;;;;;;13.21;58.45;101673.47;5054951;28;20060;-60
2022/05/13 02:48:45;;;;;;;8.32;1.80;;;;;;;13.28;58.46;101681.34;5087559;28;20057;-61
2022/05/13 02:51:13;;;;;;;9.88;1.77;;;;;;;13.42;57.86;101691.25;5067928;28;20072;-60
2022/05/13 02:53:40;;;;;;;8.93;1.70;;;;;;;13.62;57.29;101678.94;5067480;28;20052;-61
2022/05/13 02:56:08;;;;;;;10.30;1.40;;;;;;;13.09;58.62;101678.66;5053481;28;20049;-61
2022/05/13 02:58:36;;;;;;;6.72;1.52;;;;;;;13.41;57.69;101681.31;5055680;28;20049;-60
2022/05/13 03:01:05;;;;;;;8.80;1.55;;;;;;;13.43;57.63;101681.00;5086128;28;20049;-60
2022/05/13 03:03:34;;;;;;;7.72;1.75;;;;;;;12.90;58.31;101677.09;5054763;28;20044;-60
2022/05/13 03:06:01;;;;;;;7.53;1.50;;;;;;;13.27;58.26;101676.91;5075649;28;20048;-60
2022/05/13 03:08:29;;;;;;;7.97;1.85;;;;;;;13.58;57.24;101667.66;5069240;28;20048;-60
2022/05/13 03:10:56;;;;;;;9.23;1.60;;;;;;;13.73;56.76;101674.00;5055507;28;20071;-60
2022/05/13 03:13:23;;;;;;;10.73;2.00;;;;;;;13.44;57.39;101683.47;5061020;28;20044;-60
2022/05/13 03:15:50;;;;;;;7.28;1.63;;;;;;;13.17;58.69;101677.97;5062617;28;20052;-61
2022/05/13 03:18:18;;;;;;;8.68;2.00;;;;;;;13.37;57.81;101674.75;5055943;28;20538;-62
2022/05/13 03:20:45;;;;;;;11.85;1.90;;;;;;;13.03;59.33;101668.00;5068350;28;20056;-60
2022/05/13 03:23:12;;;;;;;9.02;2.30;;;;;;;13.07;60.03;101666.28;5055108;28;20056;-60
2022/05/13 03:25:40;;;;;;;12.80;2.47;;;;;;;13.31;59.50;101667.72;5084344;28;20055;-60
2022/05/13 03:28:07;;;;;;;10.73;2.40;;;;;;;13.57;59.01;101670.75;5068326;28;20208;-60
2022/05/13 03:30:34;;;;;;;10.95;2.88;;;;;;;13.74;58.56;101670.13;5067051;28;20048;-60
2022/05/13 03:33:02;;;;;;;11.50;3.03;;;;;;;13.48;59.08;101658.75;5056307;28;20049;-61
2022/05/13 03:35:29;;;;;;;13.57;3.53;;;;;;;13.47;59.28;101671.81;5049280;28;20056;-60
2022/05/13 03:37:57;;;;;;;15.02;3.47;;;;;;;13.37;59.64;101669.22;5061360;28;20071;-61
2022/05/13 03:40:25;;;;;;;13.73;3.22;;;;;;;13.29;60.40;101669.13;5073536;28;20416;-61
2022/05/13 03:42:52;;;;;;;14.63;3.72;;;;;;;13.45;59.92;101664.91;5068539;28;20056;-60
2022/05/13 03:45:19;;;;;;;12.15;4.00;;;;;;;13.60;59.48;101670.13;5052596;28;20057;-60
2022/05/13 03:47:49;;;;;;;16.98;3.67;;;;;;;13.88;58.79;101676.44;5073137;28;20063;-61
2022/05/13 03:50:16;;;;;;;18.60;3.87;;;;;;;14.15;57.70;101677.16;5060777;28;20520;-60
2022/05/13 03:52:44;;;;;;;13.63;4.13;;;;;;;14.14;57.42;101669.97;5060813;28;20063;-60
2022/05/13 03:55:11;;;;;;;11.18;4.03;;;;;;;13.94;58.22;101669.63;5073621;28;20052;-61
2022/05/13 03:57:38;;;;;;;13.38;4.30;;;;;;;14.10;57.81;101677.28;5084521;28;20092;-60
2022/05/13 04:00:07;;;;;;;11.10;3.85;;;;;;;13.95;58.07;101687.88;5054726;28;20063;-60
2022/05/13 04:02:36;;;;;;;12.55;3.60;;;;;;;13.96;57.96;101682.06;5052238;28;20060;-61
2022/05/13 04:10:37;;;;;;;12.95;3.42;;;;;;;13.70;58.33;101675.44;5056695;28;20108;-60
2022/05/13 04:16:09;;;;;;;6.32;2.03;;;;;;;13.67;58.45;101687.13;5052604;28;20053;-60
2022/05/13 04:18:47;;;;;;;15.38;2.90;;;;;;;13.42;59.17;101679.38;5064761;28;20075;-61
2022/05/13 04:21:28;;;;;;;12.30;2.92;;;;;;;13.62;58.78;101687.25;5051246;28;20475;-60
2022/05/13 04:23:58;;;;;;;9.65;3.05;;;;;;;13.48;59.17;101680.91;5052812;28;20052;-60
2022/05/13 04:26:26;;;;;;;14.73;2.90;;;;;;;13.56;59.13;101691.25;5086012;28;20049;-60
2022/05/13 04:28:54;;;;;;;13.95;2.17;;;;;;;13.71;59.25;101679.00;5067590;28;20064;-59
2022/05/13 04:31:27;;;;;;;12.68;2.55;;;;;;;13.67;59.13;101684.34;5084941;28;20041;-60
2022/05/13 04:33:55;;;;;;;11.55;2.40;;;;;;;13.92;59.02;101691.28;5068268;28;20049;-62
2022/05/13 04:36:23;;;;;;;11.77;2.88;;;;;;;14.02;58.49;101694.63;5054125;28;20049;-61
2022/05/13 04:38:51;;;;;;;17.02;2.85;;;;;;;13.80;59.21;101691.84;5052198;28;20053;-60
2022/05/13 04:44:06;;;;;;;10.43;2.53;;;;;;;13.39;61.10;101713.19;5054876;28;20052;-61
2022/05/13 04:46:34;;;;;;;9.73;2.55;;;;;;;13.15;62.27;101701.50;5064098;28;20160;-60
2022/05/13 04:49:02;;;;;;;9.40;2.72;;;;;;;13.17;62.56;101700.09;5069404;28;20064;-61
2022/05/13 04:51:30;;;;;;;12.07;2.53;;;;;;;12.91;63.44;101701.69;5074111;28;20071;-62
2022/05/13 04:53:58;;;;;;;12.23;2.42;;;;;;;13.11;63.12;101706.84;5059420;28;20377;-61
2022/05/13 04:56:26;;;;;;;11.23;2.45;;;;;;;13.33;62.21;101704.19;5057232;28;20052;-60
2022/05/13 04:58:54;;;;;;;12.52;2.78;;;;;;;13.26;62.24;101703.78;5052432;28;20060;-61
2022/05/13 05:01:22;;;;;;;9.35;2.45;;;;;;;13.52;61.76;101704.06;5043091;28;20060;-60
2022/05/13 05:03:50;;;;;;;9.90;2.63;;;;;;;13.69;61.09;101709.78;5071254;28;20044;-61
2022/05/13 05:06:19;;;;;;;12.73;2.80;;;;;;;13.59;61.00;101710.00;5074000;28;20048;-61
2022/05/13 05:08:47;;;;;;;7.95;2.20;;;;;;;13.74;60.79;101717.19;5059202;28;20056;-62
2022/05/13 05:11:15;;;;;;;19.40;3.15;;;;;;;13.73;60.66;101726.59;5039614;28;20065;-61
2022/05/13 05:13:44;;;;;;;13.27;3.03;;;;;;;13.61;61.28;101718.00;5053642;28;20427;-60
2022/05/13 05:16:12;;;;;;;9.30;3.00;;;;;;;13.50;61.40;101726.53;5052895;28;20049;-63
2022/05/13 05:18:40;;;;;;;12.70;2.67;;;;;;;13.21;63.04;101734.31;5049058;28;20051;-62
2022/05/13 05:21:09;;;;;;;11.00;2.88;;;;;;;13.32;62.95;101721.09;5071723;28;20053;-60
2022/05/13 05:23:39;;;;;;;15.18;2.83;;;;;;;13.35;63.38;101735.13;5066350;28;20051;-60
2022/05/13 05:26:07;;;;;;;12.15;2.85;;;;;;;13.33;63.46;101733.81;5052775;28;20056;-60
2022/05/13 05:28:37;;;;;;;15.50;2.88;;;;;;;13.43;63.39;101742.72;5055631;28;20056;-59
2022/05/13 05:31:09;;;;;;;15.15;3.03;;;;;;;13.56;63.42;101741.88;5057692;28;20052;-62
2022/05/13 05:33:36;;;;;;;15.00;2.65;;;;;;;13.85;62.50;101749.88;5057518;28;20131;-62
2022/05/13 05:36:04;;;;;;;14.02;2.80;;;;;;;13.56;63.37;101749.41;5056452;28;20052;-61
2022/05/13 05:38:31;;;;;;;14.40;2.80;;;;;;;13.41;64.00;101742.22;5057263;28;20510;-61
2022/05/13 05:41:00;;;;;;;14.30;3.15;;;;;;;13.51;64.18;101755.03;5057531;28;20503;-63
2022/05/13 05:43:27;;;;;;;12.30;2.90;;;;;;;13.70;63.50;101747.44;5056232;28;20051;-62
2022/05/13 05:45:56;;;;;;;13.82;3.25;;;;;;;13.62;63.40;101753.69;5074495;28;20059;-61
2022/05/13 05:48:24;;;;;;;13.90;3.17;;;;;;;13.74;63.89;101755.94;5055061;28;20064;-62
2022/05/13 05:50:53;;;;;;;12.45;2.83;;;;;;;13.89;63.35;101755.63;5061108;28;20059;-62
2022/05/13 05:59:13;;;;;;;12.02;2.90;;;;;;;13.74;63.79;101767.81;5057046;28;20045;-59
2022/05/13 06:01:40;;;;;;;11.20;2.72;;;;;;;13.79;63.71;101770.47;5054499;28;20061;-60
2022/05/13 06:04:08;;;;;;;14.05;2.78;;;;;;;13.89;63.67;101766.69;5053919;28;20049;-60
2022/05/13 06:06:35;;;;;;;13.80;2.60;;;;;;;14.00;63.46;101766.16;5056623;28;20114;-59
2022/05/13 06:09:02;;;;;;;9.93;3.00;;;;;;;13.89;63.80;101777.78;5056635;28;20065;-67
2022/05/13 06:11:30;;;;;;;11.07;2.58;;;;;;;13.69;66.00;101773.47;5058089;28;20487;-67
2022/05/13 06:13:58;;;;;;;14.75;2.90;;;;;;;14.30;64.75;101772.97;5053105;28;20456;-68
2022/05/13 06:16:29;;;;;;;12.82;3.22;;;;;;;14.71;63.07;101773.66;5054372;28;20048;-68
2022/05/13 06:19:01;;;;;;;11.20;2.72;;;;;;;14.97;61.87;101771.03;5063211;28;20136;-67
2022/05/13 06:21:29;;;;;;;15.02;3.33;;;;;;;14.99;61.07;101777.94;5056690;28;20052;-67
2022/05/13 06:23:57;;;;;;;15.55;3.13;;;;;;;15.20;60.64;101776.22;5055072;28;20041;-61
2022/05/13 06:26:25;;;;;;;14.25;3.03;;;;;;;15.25;60.06;101773.34;5055411;28;20059;-65
2022/05/13 06:28:53;;;;;;;14.07;3.08;;;;;;;15.24;60.61;101780.00;5058791;28;20537;-71
2022/05/13 06:31:21;;;;;;;18.45;3.55;;;;;;;15.49;60.41;101790.47;5054082;28;20048;-68
2022/05/13 06:33:48;;;;;;;12.18;2.60;;;;;;;15.55;59.28;101791.94;5074787;28;20041;-69
2022/05/13 06:36:15;;;;;;;14.27;2.83;;;;;;;15.69;58.44;101786.31;5083011;28;20061;-67
2022/05/13 06:38:43;;;;;;;14.63;3.03;;;;;;;15.38;58.72;101793.78;5067466;28;20082;-67
2022/05/13 06:41:11;;;;;;;12.35;2.72;;;;;;;14.99;59.48;101791.81;5053658;28;20084;-68
2022/05/13 06:43:38;;;;;;;13.00;2.95;;;;;;;14.74;59.80;101797.16;5053042;28;20033;-69
2022/05/13 06:46:05;;;;;;;12.55;2.78;;;;;;;14.43;61.22;101794.31;5086790;28;20068;-67
2022/05/13 06:48:37;;;;;;;;;;;;;;;14.89;60.81;101799.56;5060681;28;20389;-67
2022/05/13 06:51:05;;;;;;;13.80;3.20;;;;;;;15.44;59.30;101806.44;5055695;28;19924;-68
2022/05/13 06:53:32;;;;;;;11.23;2.60;;;;;;;14.33;61.26;101811.97;5048960;28;20045;-67
2022/05/13 06:55:59;;;;;;;8.65;1.65;;;;;;;14.15;60.72;101809.31;5079539;28;20056;-68
2022/05/13 06:58:27;;;;;;;7.65;1.63;;;;;;;13.66;59.82;101806.50;5061856;28;20057;-68
2022/05/13 07:00:55;;;;;;;8.65;1.65;;;;;;;13.77;59.99;101811.53;5055741;28;20056;-68
2022/05/13 07:03:22;;;;;;;8.27;2.15;;;;;;;13.65;60.95;101821.47;5052894;28;20056;-68
2022/05/13 07:05:49;;;;;;;4.80;1.20;;;;;;;13.62;60.04;101822.91;5066100;28;20053;-68
2022/05/13 07:08:17;;;;;;;7.97;1.80;;;;;;;13.87;59.59;101818.78;5086856;28;20041;-68
2022/05/13 07:10:45;;;;;;;10.32;1.73;;;;;;;13.87;60.01;101813.25;5066802;28;20060;-68
2022/05/13 07:13:14;;;;;;;10.70;1.88;;;;;;;13.96;59.89;101817.78;5071205;28;20048;-67
2022/05/13 07:15:43;;;;;;;9.85;1.90;;;;;;;14.22;58.83;101818.88;5056857;28;20184;-67
2022/05/13 07:18:11;;;;;;;11.43;1.83;;;;;;;14.55;57.48;101814.81;5048306;28;20055;-68
2022/05/13 07:20:39;;;;;;;10.65;3.25;;;;;;;14.91;57.06;101814.75;5059767;28;20063;-67
2022/05/13 07:23:06;;;;;;;11.63;1.60;;;;;;;14.92;55.62;101812.78;5065048;28;20049;-67
2022/05/13 07:25:34;;;;;;;6.90;1.52;;;;;;;15.13;55.02;101822.25;5061663;28;20045;-68
2022/05/13 07:28:01;;;;;;;7.80;1.60;;;;;;;15.20;54.71;101819.84;5056902;28;20123;-67
2022/05/13 07:30:28;;;;;;;7.10;1.30;;;;;;;14.79;54.43;101808.94;5048751;28;20049;-67
2022/05/13 07:32:56;;;;;;;6.05;1.50;;;;;;;15.18;52.59;101811.84;5070977;28;20055;-67
2022/05/13 07:35:23;;;;;;;9.15;1.92;;;;;;;15.23;51.93;101814.47;5056695;28;20041;-68
2022/05/13 07:37:51;;;;;;;10.38;1.50;;;;;;;14.65;53.43;101811.78;5057351;28;20534;-67
2022/05/13 07:43:05;;;;;;;9.45;1.38;;;;;;;15.62;51.55;101822.06;5065865;28;20052;-67
2022/05/13 07:45:34;;;;;;;6.75;1.60;;;;;;;15.30;49.76;101825.94;5060118;28;20046;-68
2022/05/13 07:48:02;;;;;;;8.45;1.35;;;;;;;14.84;51.63;101821.84;5051354;28;20056;-67
2022/05/13 07:50:30;;;;;;;9.60;1.90;;;;;;;15.43;50.00;101819.50;5054126;28;20041;-67
2022/05/13 07:52:58;;;;;;;7.93;1.27;;;;;;;15.95;49.09;101816.94;5049445;28;20052;-67
2022/05/13 07:55:25;;;;;;;11.05;1.42;;;;;;;16.56;48.71;101819.53;5037446;28;20044;-67
2022/05/13 07:57:53;;;;;;;7.13;1.58;;;;;;;15.98;48.72;101821.84;5068162;28;20052;-67
2022/05/13 08:00:25;;;;;;;12.43;1.35;;;;;;;15.32;49.67;101820.91;5055411;28;20053;-67
2022/05/13 08:02:59;;;;;;;6.18;1.50;;;;;;;15.16;50.71;101824.38;5047481;28;20048;-68
2022/05/13 08:05:30;;;;;;;11.65;1.60;;;;;;;15.05;51.18;101828.53;5052656;28;20036;-66
2022/05/13 08:08:05;;;;;;;8.38;1.50;;;;;;;15.32;50.43;101817.28;5051021;28;20053;-66
2022/05/13 08:10:34;;;;;;;9.00;1.50;;;;;;;15.43;48.34;101824.25;5052674;28;20059;-66
2022/05/13 08:13:01;;;;;;;6.93;1.30;;;;;;;15.14;48.90;101818.31;5063168;28;20045;-67
2022/05/13 08:15:29;;;;;;;7.45;1.48;;;;;;;14.93;50.59;101823.56;5052772;28;20072;-67
2022/05/13 08:17:57;;;;;;;6.63;1.17;;;;;;;15.02;51.00;101824.47;5054118;28;20061;-66
2022/05/13 08:20:25;;;;;;;7.78;1.40;;;;;;;15.25;51.73;101814.16;5060272;28;20048;-65
2022/05/13 08:22:53;;;;;;;5.72;1.85;;;;;;;15.73;50.33;101826.16;5051555;28;20052;-70
2022/05/13 08:25:21;;;;;;;13.38;1.75;;;;;;;16.02;49.55;101812.53;5064863;28;20056;-67
2022/05/13 08:27:48;;;;;;;10.35;1.75;;;;;;;16.04;49.29;101826.91;5054157;28;20531;-66
2022/05/13 08:30:16;;;;;;;8.40;1.38;;;;;;;15.75;50.52;101818.31;5052288;28;20411;-67
2022/05/13 08:32:44;;;;;;;6.80;1.73;;;;;;;16.14;50.86;101823.84;5072364;28;20051;-68
2022/05/13 08:35:13;;;;;;;9.13;1.63;;;;;;;16.02;50.35;101820.06;5065634;28;20044;-61
2022/05/13 08:37:53;;;;;;;10.00;1.67;;;;;;;16.01;50.72;101813.66;5043869;28;20056;-61
2022/05/13 08:40:30;;;;;;;12.90;1.80;;;;;;;16.42;49.96;101818.81;5058372;28;20079;-60
2022/05/13 08:42:59;;;;;;;12.23;1.52;;;;;;;16.43;49.60;101821.28;5053277;28;20515;-61
2022/05/13 08:45:27;;;;;;;12.48;1.70;;;;;;;16.39;49.99;101822.22;5063497;28;20049;-62
2022/05/13 08:47:57;;;;;;;5.53;1.40;;;;;;;16.61;48.76;101819.34;5061910;28;20156;-61
2022/05/13 08:50:24;;;;;;;8.25;1.40;;;;;;;16.61;49.34;101817.41;5081595;28;20507;-61
2022/05/13 08:53:12;;;;;;;5.82;1.40;;;;;;;16.44;49.94;101822.09;5048386;28;20624;-62
2022/05/13 08:55:46;;;;;;;10.65;1.98;;;;;;;15.85;51.11;101820.81;5089263;28;20055;-61
2022/05/13 08:58:17;;;;;;;12.13;1.77;;;;;;;15.84;49.86;101823.91;5069071;28;20052;-61
2022/05/13 09:00:46;;;;;;;;;;;;;;;16.02;49.37;101825.63;5064501;28;20052;-60
2022/05/13 09:03:27;;;;;;;9.75;1.50;;;;;;;15.77;50.04;101818.84;5064539;28;19920;-61
2022/05/13 09:05:58;;;;;;;10.38;1.45;;;;;;;15.62;49.51;101827.59;5060575;28;20057;-62
2022/05/13 09:08:26;;;;;;;11.60;1.65;;;;;;;15.80;49.43;101820.97;5105538;28;20555;-61
2022/05/13 09:10:56;;;;;;;8.90;1.40;;;;;;;15.72;49.22;101817.03;5075670;28;20053;-61
2022/05/13 09:13:35;;;;;;;14.82;1.70;;;;;;;15.92;49.27;101818.38;5063949;28;20057;-61
2022/05/13 09:16:07;;;;;;;8.80;1.77;;;;;;;16.22;47.49;101827.78;5080024;28;20049;-61
2022/05/13 09:18:37;;;;;;;5.50;1.35;;;;;;;15.90;47.72;101822.63;5091381;28;20057;-65
2022/05/13 09:21:18;;;;;;;;;;;;;;;15.76;46.55;101822.72;5065118;28;20056;-64
2022/05/13 09:23:46;;;;;;;12.77;1.63;;;;;;;15.81;46.57;101819.00;5060645;28;20307;-61
2022/05/13 09:26:16;;;;;;;3.65;1.05;;;;;;;16.27;45.44;101817.31;5053771;28;20057;-62
2022/05/13 09:29:07;;;;;;;;;;;;;;;16.42;45.34;101824.38;5089218;28;20057;-61
2022/05/13 09:31:41;;;;;;;7.60;1.70;;;;;;;16.31;44.93;101820.28;5051059;28;20249;-62
2022/05/13 09:34:16;;;;;;;8.38;1.83;;;;;;;16.39;45.07;101819.44;5049545;28;20059;-61
2022/05/13 09:36:43;;;;;;;13.10;1.77;;;;;;;16.61;43.81;101822.13;5065431;28;20049;-62
2022/05/13 09:39:20;;;;;;;5.85;1.08;;;;;;;16.65;43.22;101820.31;5049724;28;20052;-61
2022/05/13 09:41:48;;;;;;;11.32;1.60;;;;;;;16.79;42.35;101824.56;5052122;28;20068;-61
2022/05/13 09:44:24;;;;;;;6.20;1.38;;;;;;;16.14;42.75;101812.72;5084131;28;20048;-63
2022/05/13 09:47:13;;;;;;;4.88;1.08;;;;;;;16.23;42.71;101821.88;5065193;28;20068;-63
2022/05/13 09:50:01;;;;;;;6.47;1.20;;;;;;;16.33;41.84;101818.00;5058664;28;20064;-62
2022/05/13 09:52:34;;;;;;;5.70;1.13;;;;;;;16.29;41.63;101822.56;5082062;28;20049;-61
2022/05/13 09:55:26;;;;;;;4.28;0.88;;;;;;;16.43;42.02;101812.09;5053286;28;20613;-61
2022/05/13 09:57:58;;;;;;;6.60;1.10;;;;;;;16.42;41.54;101813.25;5039814;28;20060;-61
2022/05/13 10:00:36;;;;;;;6.72;1.10;;;;;;;16.85;41.52;101801.00;5064415;28;20064;-63
2022/05/13 10:03:09;;;;;;;12.35;1.42;;;;;;;16.95;41.48;101815.72;5050710;28;20244;-63
2022/05/13 10:05:37;;;;;;;7.03;1.73;;;;;;;16.91;42.54;101803.63;5059627;28;20040;-63
2022/05/13 10:08:08;;;;;;;6.82;1.25;;;;;;;17.02;41.92;101813.25;5057317;28;20048;-61
2022/05/13 10:16:27;;;;;;;8.38;1.42;;;;;;;17.17;42.03;101794.09;5052024;28;20059;-70
2022/05/13 10:18:59;;;;;;;5.75;1.83;;;;;;;17.26;42.16;101794.06;5066247;28;20059;-70
2022/05/13 10:21:29;;;;;;;6.28;1.63;;;;;;;17.48;42.59;101802.19;5054166;28;20048;-70
2022/05/13 10:24:07;;;;;;;6.68;1.70;;;;;;;17.34;41.18;101807.13;5041331;28;20049;-68
2022/05/13 10:26:40;;;;;;;8.25;1.90;;;;;;;17.45;41.48;101795.28;5087277;28;20059;-68
2022/05/13 10:29:15;;;;;;;8.48;1.60;;;;;;;17.33;41.24;101797.16;5059911;28;20052;-68
2022/05/13 10:31:43;;;;;;;4.70;1.35;;;;;;;17.36;41.87;101783.38;5049971;28;20053;-68
2022/05/13 10:34:23;;;;;;;14.57;5.05;;;;;;;17.38;42.04;101788.59;5057348;28;20045;-67
2022/05/13 10:37:28;;;;;;;7.22;2.10;;;;;;;17.18;40.81;101806.84;5060890;28;20376;-68
2022/05/13 10:40:00;;;;;;;6.63;1.60;;;;;;;16.88;41.47;101785.59;5050279;28;20040;-67
2022/05/13 10:42:33;;;;;;;11.55;1.80;;;;;;;17.24;40.58;101791.59;5065763;28;20051;-66
2022/05/13 10:45:07;;;;;;;5.35;1.67;;;;;;;16.64;41.29;101783.34;5061425;28;20048;-65
2022/05/13 10:47:51;;;;;;;6.38;1.58;;;;;;;16.88;41.50;101778.09;5086624;28;20045;-68
2022/05/13 10:50:23;;;;;;;6.95;1.50;;;;;;;17.32;41.16;101774.03;5062486;28;20048;-68
2022/05/13 10:53:26;;;;;;;4.95;1.65;;;;;;;17.15;41.29;101768.53;5073670;28;20059;-67
2022/05/13 10:56:14;;;;;;;5.50;1.30;;;;;;;17.38;40.79;101767.13;5059854;28;20057;-67
2022/05/13 10:58:54;;;;;;;11.18;1.50;;;;;;;17.72;40.91;101758.66;5056451;28;20053;-66
2022/05/13 11:01:58;;;;;;;3.83;1.40;;;;;;;17.85;40.11;101763.16;5062213;28;20064;-66
2022/05/13 11:04:36;;;;;;;6.38;1.48;;;;;;;17.33;40.85;101767.31;5052297;28;20049;-66
2022/05/13 11:07:42;;;;;;;7.45;1.63;;;;;;;17.23;41.00;101762.09;5071135;28;20064;-67
2022/05/13 11:10:28;;;;;;;11.30;2.63;;;;;;;17.46;41.24;101760.75;5050343;28;20053;-67
2022/05/13 11:13:18;;;;;;;8.05;2.13;;;;;;;17.76;40.27;101762.41;5021039;28;20061;-69
2022/05/13 11:16:14;;;;;;;7.05;1.48;;;;;;;17.58;40.93;101757.25;5045804;28;20535;-68
2022/05/13 11:19:02;;;;;;;7.47;1.80;;;;;;;17.54;41.33;101750.72;5081662;28;20052;-68
2022/05/13 11:21:35;;;;;;;8.43;1.70;;;;;;;17.44;41.59;101753.81;5064662;28;20056;-68
2022/05/13 11:27:42;;;;;;;11.88;5.53;;;;;;;18.61;40.50;101744.25;5051905;28;20136;-68
2022/05/13 11:30:19;;;;;;;13.18;7.80;;;;;;;18.76;40.41;101743.59;5054466;28;20053;-67
2022/05/13 11:33:14;;;;;;;6.88;2.95;;;;;;;19.32;39.08;101738.44;5049072;28;20056;-67
2022/05/13 11:35:54;;;;;;;16.85;8.18;;;;;;;18.55;39.87;101744.81;5054281;28;20053;-67
2022/05/13 11:38:34;;;;;;;8.23;2.33;;;;;;;18.14;40.17;101741.97;5056499;28;20055;-69
2022/05/13 11:41:10;;;;;;;6.93;2.40;;;;;;;17.99;41.08;101735.03;5055926;28;20484;-67
2022/05/13 11:44:04;;;;;;;9.88;2.60;;;;;;;18.88;40.28;101735.25;5050151;28;20053;-67
2022/05/13 11:47:01;;;;;;;7.03;1.92;;;;;;;18.94;38.52;101739.47;5075931;28;20072;-69
2022/05/13 11:49:30;;;;;;;9.90;2.10;;;;;;;19.18;38.92;101729.53;5083975;28;20505;-67
2022/05/13 11:52:27;;;;;;;8.68;2.22;;;;;;;19.39;37.68;101738.63;5050383;28;20055;-67
2022/05/13 11:55:22;;;;;;;6.55;1.45;;;;;;;19.04;37.96;101735.41;5052578;28;20061;-67
2022/05/13 11:57:51;;;;;;;3.53;1.75;;;;;;;18.78;39.20;101734.88;5067849;28;20510;-67
2022/05/13 12:00:33;;;;;;;23.80;14.98;;;;;;;19.14;38.75;101726.59;5064057;28;20052;-68
2022/05/13 12:03:02;;;;;;;16.75;10.60;;;;;;;19.69;38.67;101714.88;5093153;28;20056;-69
2022/05/13 12:05:57;;;;;;;9.45;3.10;;;;;;;20.08;36.95;101714.94;5073491;28;20059;-68
2022/05/13 12:08:33;;;;;;;7.80;1.90;;;;;;;19.97;36.89;101719.41;5061031;28;20047;-68
2022/05/13 12:11:17;;;;;;;10.88;2.00;;;;;;;20.01;36.88;101714.72;5062446;28;20063;-68
2022/05/13 12:14:00;;;;;;;4.90;1.55;;;;;;;19.59;37.09;101721.78;5034578;28;20049;-69